createdAt,value
2022-07-26T00:01:48.612Z,60.70
2022-07-26T00:04:16.025Z,61.90
2022-07-26T00:06:43.496Z,61.10
2022-07-26T00:09:11.215Z,61.30
2022-07-26T00:11:38.800Z,61.50
2022-07-26T00:14:07.781Z,61.50
2022-07-26T00:16:36.192Z,61.70
2022-07-26T00:19:05.328Z,61.90
2022-07-26T00:21:34.679Z,62.10
2022-07-26T00:24:02.332Z,62.30
2022-07-26T00:26:29.792Z,62.50
2022-07-26T00:28:57.577Z,62.80
2022-07-26T00:31:24.888Z,62.90
2022-07-26T00:33:52.264Z,62.90
2022-07-26T00:36:19.588Z,62.90
2022-07-26T00:38:46.904Z,63.10
2022-07-26T00:41:14.618Z,63.00
2022-07-26T00:43:59.951Z,63.30
2022-07-26T00:46:27.768Z,63.70
2022-07-26T00:48:55.321Z,63.70
2022-07-26T00:51:22.881Z,63.80
2022-07-26T00:53:50.780Z,64.10
2022-07-26T00:56:18.311Z,64.20
2022-07-26T00:58:45.759Z,64.40
2022-07-26T01:01:13.305Z,64.70
2022-07-26T01:03:41.571Z,65.00
2022-07-26T01:06:09.209Z,65.40
2022-07-26T01:08:36.837Z,65.80
2022-07-26T01:11:04.279Z,66.70
2022-07-26T01:13:35.045Z,66.90
2022-07-26T01:16:04.249Z,65.90
2022-07-26T01:18:31.653Z,65.30
2022-07-26T01:21:02.275Z,64.10
2022-07-26T01:23:42.330Z,62.40
2022-07-26T01:26:10.111Z,61.60
2022-07-26T01:28:39.150Z,61.60
2022-07-26T01:31:08.450Z,61.80
2022-07-26T01:33:36.000Z,62.20
2022-07-26T01:36:03.310Z,63.00
2022-07-26T01:38:30.616Z,63.60
2022-07-26T01:40:58.196Z,64.50
2022-07-26T01:43:25.591Z,65.40
2022-07-26T01:45:55.267Z,66.50
2022-07-26T01:48:22.915Z,67.60
2022-07-26T01:50:50.405Z,68.50
2022-07-26T01:53:17.936Z,69.60
2022-07-26T01:55:45.245Z,69.40
2022-07-26T01:58:12.932Z,69.80
2022-07-26T02:00:40.694Z,70.00
2022-07-26T02:03:08.069Z,69.90
2022-07-26T02:05:35.506Z,69.90
2022-07-26T02:08:02.883Z,69.70
2022-07-26T02:10:50.266Z,70.10
2022-07-26T02:13:17.868Z,70.10
2022-07-26T02:15:45.329Z,70.10
2022-07-26T02:18:12.828Z,70.40
2022-07-26T02:20:40.519Z,70.90
2022-07-26T02:23:08.773Z,72.80
2022-07-26T02:25:36.214Z,73.50
2022-07-26T02:28:03.756Z,74.90
2022-07-26T02:30:31.052Z,78.00
2022-07-26T02:32:58.448Z,79.50
2022-07-26T02:35:25.771Z,80.50
2022-07-26T02:37:53.051Z,81.40
2022-07-26T02:40:20.683Z,82.10
2022-07-26T02:42:48.055Z,83.50
2022-07-26T02:45:15.435Z,84.80
2022-07-26T02:47:50.441Z,85.90
2022-07-26T02:50:23.179Z,87.80
2022-07-26T02:52:51.645Z,88.80
2022-07-26T02:55:21.331Z,89.80
2022-07-26T02:57:49.116Z,90.10
2022-07-26T03:00:18.963Z,90.50
2022-07-26T03:02:49.157Z,90.60
2022-07-26T03:05:17.345Z,90.90
2022-07-26T03:07:45.047Z,91.30
2022-07-26T03:10:12.607Z,91.60
2022-07-26T03:12:39.932Z,91.70
2022-07-26T03:15:08.995Z,92.80
2022-07-26T03:17:36.674Z,93.50
2022-07-26T03:20:05.632Z,94.20
2022-07-26T03:22:33.028Z,94.90
2022-07-26T03:25:00.516Z,95.30
2022-07-26T03:27:28.137Z,95.50
2022-07-26T03:29:55.428Z,95.80
2022-07-26T03:32:22.773Z,96.60
2022-07-26T03:34:50.140Z,96.80
2022-07-26T03:37:17.940Z,97.40
2022-07-26T03:39:45.633Z,98.20
2022-07-26T03:42:13.271Z,99.10
2022-07-26T03:44:40.557Z,99.80
2022-07-26T03:47:07.991Z,99.90
2022-07-26T03:49:35.374Z,99.90
2022-07-26T03:52:02.788Z,99.90
2022-07-26T03:54:30.288Z,99.90
2022-07-26T03:56:57.739Z,99.90
2022-07-26T03:59:25.562Z,99.90
2022-07-26T04:01:53.109Z,99.90
2022-07-26T04:04:25.365Z,99.90
2022-07-26T04:06:53.936Z,99.90
2022-07-26T04:09:21.189Z,99.90
2022-07-26T04:11:49.039Z,99.90
2022-07-26T04:14:16.378Z,99.90
2022-07-26T04:16:44.132Z,99.90
2022-07-26T04:19:11.471Z,99.90
2022-07-26T04:21:38.921Z,99.90
2022-07-26T04:24:07.100Z,99.80
2022-07-26T04:26:34.636Z,99.70
2022-07-26T04:29:02.135Z,99.70
2022-07-26T04:31:29.566Z,99.50
2022-07-26T04:34:04.043Z,99.30
2022-07-26T04:36:31.388Z,98.80
2022-07-26T04:38:58.664Z,98.60
2022-07-26T04:41:26.360Z,98.50
2022-07-26T04:43:53.647Z,98.30
2022-07-26T04:46:21.362Z,98.10
2022-07-26T04:48:48.866Z,97.50
2022-07-26T04:51:16.549Z,97.40
2022-07-26T04:53:43.801Z,97.30
2022-07-26T04:56:11.092Z,97.40
2022-07-26T04:58:38.360Z,97.30
2022-07-26T05:01:10.426Z,97.40
2022-07-26T05:03:39.069Z,97.20
2022-07-26T05:06:06.902Z,97.10
2022-07-26T05:08:34.523Z,97.00
2022-07-26T05:11:02.163Z,96.70
2022-07-26T05:13:30.930Z,96.90
2022-07-26T05:15:59.966Z,97.00
2022-07-26T05:18:29.399Z,97.00
2022-07-26T05:20:59.043Z,97.10
2022-07-26T05:23:26.304Z,97.00
2022-07-26T05:25:53.705Z,97.00
2022-07-26T05:28:20.998Z,97.30
2022-07-26T05:30:48.427Z,97.20
2022-07-26T05:33:16.633Z,97.00
2022-07-26T05:35:44.210Z,96.90
2022-07-26T05:38:11.615Z,96.80
2022-07-26T05:40:39.072Z,96.80
2022-07-26T05:43:06.653Z,96.90
2022-07-26T05:45:34.002Z,96.80
2022-07-26T05:48:01.300Z,97.10
2022-07-26T05:50:28.904Z,97.20
2022-07-26T05:52:56.323Z,97.30
2022-07-26T05:55:23.617Z,97.40
2022-07-26T05:57:50.938Z,97.40
2022-07-26T06:00:18.958Z,97.30
2022-07-26T06:02:46.358Z,97.20
2022-07-26T06:05:15.736Z,97.30
2022-07-26T06:07:43.403Z,97.60
2022-07-26T06:10:10.900Z,98.10
2022-07-26T06:12:38.356Z,98.30
2022-07-26T06:15:14.907Z,98.60
2022-07-26T06:17:43.555Z,98.80
2022-07-26T06:20:11.431Z,98.60
2022-07-26T06:22:38.754Z,98.50
2022-07-26T06:25:07.071Z,98.10
2022-07-26T06:27:34.456Z,97.90
2022-07-26T06:30:01.986Z,97.90
2022-07-26T06:32:29.626Z,97.70
2022-07-26T06:34:56.937Z,97.40
2022-07-26T06:37:24.211Z,97.40
2022-07-26T06:39:52.127Z,97.50
2022-07-26T06:42:19.477Z,97.20
2022-07-26T06:44:46.767Z,97.00
2022-07-26T06:47:14.238Z,96.60
2022-07-26T06:49:41.632Z,96.00
2022-07-26T06:52:08.939Z,95.40
2022-07-26T06:54:36.228Z,95.00
2022-07-26T06:57:03.780Z,94.40
2022-07-26T06:59:31.103Z,94.70
2022-07-26T07:02:00.506Z,94.50
2022-07-26T07:04:30.143Z,94.50
2022-07-26T07:07:02.355Z,94.80
2022-07-26T07:09:33.574Z,94.70
2022-07-26T07:12:10.056Z,94.00
2022-07-26T07:14:38.722Z,93.90
2022-07-26T07:17:13.045Z,93.10
2022-07-26T07:19:41.879Z,92.50
2022-07-26T07:22:12.228Z,92.40
2022-07-26T07:24:41.149Z,92.30
2022-07-26T07:27:09.167Z,92.20
2022-07-26T07:29:41.476Z,92.00
2022-07-26T07:32:18.264Z,91.60
2022-07-26T07:34:48.548Z,91.00
2022-07-26T07:37:17.085Z,90.90
2022-07-26T07:39:50.354Z,90.60
2022-07-26T07:42:19.258Z,89.90
2022-07-26T07:44:47.438Z,89.90
2022-07-26T07:47:14.935Z,89.60
2022-07-26T07:49:42.784Z,89.90
2022-07-26T07:52:10.179Z,88.90
2022-07-26T07:54:37.621Z,88.90
2022-07-26T07:57:05.303Z,88.60
2022-07-26T07:59:32.759Z,87.60
2022-07-26T08:02:06.901Z,86.60
2022-07-26T08:04:34.600Z,87.40
2022-07-26T08:07:02.432Z,85.80
2022-07-26T08:09:29.761Z,86.20
2022-07-26T08:12:01.366Z,86.30
2022-07-26T08:14:30.160Z,86.60
2022-07-26T08:16:57.662Z,87.20
2022-07-26T08:19:26.160Z,87.80
2022-07-26T08:22:09.449Z,88.70
2022-07-26T08:24:36.868Z,88.10
2022-07-26T08:27:04.609Z,88.70
2022-07-26T08:29:31.968Z,89.50
2022-07-26T08:32:00.662Z,88.70
2022-07-26T08:34:28.044Z,89.30
2022-07-26T08:37:15.989Z,89.10
2022-07-26T08:39:42.663Z,89.00
2022-07-26T08:42:17.103Z,89.50
2022-07-26T08:44:50.936Z,90.00
2022-07-26T08:47:35.356Z,90.10
2022-07-26T08:50:08.354Z,90.70
2022-07-26T08:52:38.166Z,90.30
2022-07-26T08:55:05.809Z,90.20
2022-07-26T08:57:33.111Z,90.30
2022-07-26T09:00:23.654Z,90.00
2022-07-26T09:02:52.936Z,90.00
2022-07-26T09:05:26.965Z,90.00
2022-07-26T09:07:54.426Z,90.30
2022-07-26T09:10:21.847Z,90.20
2022-07-26T09:12:57.829Z,90.10
2022-07-26T09:15:27.227Z,89.90
2022-07-26T09:17:57.434Z,89.50
2022-07-26T09:20:27.884Z,90.20
2022-07-26T09:23:03.523Z,90.00
2022-07-26T09:25:37.797Z,89.80
2022-07-26T09:28:26.346Z,88.80
2022-07-26T09:30:55.802Z,88.10
2022-07-26T09:33:23.660Z,87.80
2022-07-26T09:36:06.845Z,87.50
2022-07-26T09:38:51.595Z,87.20
2022-07-26T09:41:29.807Z,85.80
2022-07-26T09:44:00.524Z,86.70
2022-07-26T09:46:29.882Z,86.00
2022-07-26T09:49:10.432Z,86.30
2022-07-26T09:51:44.313Z,84.70
2022-07-26T09:54:13.258Z,84.10
2022-07-26T09:56:45.202Z,84.40
2022-07-26T09:59:18.072Z,85.00
2022-07-26T10:01:46.076Z,85.30
2022-07-26T10:04:14.693Z,85.50
2022-07-26T10:06:42.684Z,84.30
2022-07-26T10:09:10.650Z,84.30
2022-07-26T10:11:50.331Z,83.60
2022-07-26T10:14:32.966Z,81.60
2022-07-26T10:17:01.817Z,80.40
2022-07-26T10:19:45.804Z,80.80
2022-07-26T10:22:26.201Z,80.80
2022-07-26T10:25:17.841Z,81.40
2022-07-26T10:27:50.811Z,80.70
2022-07-26T10:30:18.279Z,80.90
2022-07-26T10:32:52.147Z,80.20
2022-07-26T10:35:34.515Z,77.90
2022-07-26T10:38:04.617Z,78.50
2022-07-26T10:40:32.132Z,77.10
2022-07-26T10:46:19.087Z,76.60
2022-07-26T10:49:03.545Z,76.00
2022-07-26T10:51:34.033Z,74.20
2022-07-26T10:54:06.447Z,73.70
2022-07-26T10:56:34.355Z,73.50
2022-07-26T10:59:02.497Z,73.80
2022-07-26T11:01:37.575Z,73.40
2022-07-26T11:04:06.866Z,73.60
2022-07-26T11:06:34.321Z,73.10
2022-07-26T11:09:12.702Z,71.50
2022-07-26T11:11:46.434Z,70.80
2022-07-26T11:14:18.101Z,71.10
2022-07-26T11:16:48.162Z,70.80
2022-07-26T11:19:26.167Z,70.40
2022-07-26T11:21:59.318Z,70.60
2022-07-26T11:24:27.343Z,70.40
2022-07-26T11:26:55.000Z,69.30
2022-07-26T11:29:38.923Z,68.30
2022-07-26T11:32:22.615Z,66.90
2022-07-26T11:35:04.257Z,67.20
2022-07-26T11:37:32.268Z,65.60
2022-07-26T11:39:59.929Z,65.60
2022-07-26T11:42:28.811Z,65.80
2022-07-26T11:44:56.197Z,64.80
2022-07-26T11:47:24.511Z,65.50
2022-07-26T11:52:41.433Z,64.20
2022-07-26T11:55:09.272Z,62.70
2022-07-26T11:57:36.935Z,63.50
2022-07-26T12:00:05.657Z,63.60
2022-07-26T12:02:39.046Z,61.40
2022-07-26T12:05:22.199Z,60.70
2022-07-26T12:08:03.043Z,59.30
2022-07-26T12:10:30.835Z,58.80
2022-07-26T12:13:27.768Z,58.70
2022-07-26T12:16:07.253Z,58.00
2022-07-26T12:18:36.744Z,58.20
2022-07-26T12:21:07.996Z,58.30
2022-07-26T12:23:46.205Z,57.70
2022-07-26T12:26:21.064Z,57.80
2022-07-26T12:28:48.373Z,58.00
2022-07-26T12:31:30.601Z,58.40
2022-07-26T12:33:58.732Z,58.70
2022-07-26T12:36:27.922Z,58.90
2022-07-26T12:38:58.459Z,58.40
2022-07-26T12:41:39.699Z,58.50
2022-07-26T12:44:11.614Z,58.10
2022-07-26T12:46:40.080Z,58.50
2022-07-26T12:49:07.659Z,59.70
2022-07-26T12:51:35.022Z,60.00
2022-07-26T12:54:03.680Z,60.50
2022-07-26T12:56:31.085Z,62.10
2022-07-26T12:59:01.767Z,64.00
2022-07-26T13:01:30.538Z,66.40
2022-07-26T13:03:58.415Z,69.30
2022-07-26T13:06:25.960Z,71.90
2022-07-26T13:08:53.861Z,73.60
2022-07-26T13:11:21.267Z,75.30
2022-07-26T13:13:49.402Z,76.30
2022-07-26T13:16:17.045Z,80.50
2022-07-26T13:18:44.511Z,85.70
2022-07-26T13:21:11.764Z,89.80
2022-07-26T13:23:39.429Z,91.80
2022-07-26T13:26:09.239Z,93.20
2022-07-26T13:28:40.033Z,94.50
2022-07-26T13:31:07.539Z,95.30
2022-07-26T13:33:35.082Z,96.10
2022-07-26T13:36:02.553Z,96.50
2022-07-26T13:38:33.622Z,96.60
2022-07-26T13:41:04.869Z,96.70
2022-07-26T13:43:32.692Z,96.70
2022-07-26T13:46:00.192Z,96.70
2022-07-26T13:48:28.435Z,96.60
2022-07-26T13:50:57.479Z,96.30
2022-07-26T13:53:25.530Z,95.60
2022-07-26T13:55:53.380Z,94.30
2022-07-26T13:58:21.553Z,94.30
2022-07-26T14:00:49.386Z,94.10
2022-07-26T14:03:16.952Z,94.60
2022-07-26T14:05:44.689Z,94.60
2022-07-26T14:08:12.368Z,94.20
2022-07-26T14:10:40.735Z,94.10
2022-07-26T14:13:09.248Z,94.30
2022-07-26T14:15:36.703Z,94.60
2022-07-26T14:18:04.905Z,93.90
2022-07-26T14:20:32.572Z,93.30
2022-07-26T14:23:00.640Z,92.30
2022-07-26T14:25:28.391Z,92.00
2022-07-26T14:27:56.144Z,92.30
2022-07-26T14:30:23.933Z,92.20
2022-07-26T14:32:51.425Z,91.70
2022-07-26T14:35:18.967Z,91.30
2022-07-26T14:37:46.488Z,91.00
2022-07-26T14:40:17.454Z,90.40
2022-07-26T14:42:45.937Z,90.10
2022-07-26T14:45:14.508Z,90.00
2022-07-26T14:47:42.693Z,90.20
2022-07-26T14:50:11.525Z,91.00
2022-07-26T14:52:41.159Z,90.40
2022-07-26T14:55:09.338Z,88.60
2022-07-26T14:57:39.575Z,88.80
2022-07-26T15:00:10.580Z,90.30
2022-07-26T15:02:43.689Z,90.10
2022-07-26T15:05:12.233Z,90.20
2022-07-26T15:07:41.115Z,90.50
2022-07-26T15:10:10.789Z,90.80
2022-07-26T15:12:39.017Z,91.10
2022-07-26T15:15:07.710Z,91.50
2022-07-26T15:17:35.748Z,91.70
2022-07-26T15:20:05.216Z,91.40
2022-07-26T15:22:32.554Z,91.30
2022-07-26T15:24:59.877Z,91.30
2022-07-26T15:27:27.235Z,91.10
2022-07-26T15:29:58.219Z,91.10
2022-07-26T15:32:30.175Z,91.50
2022-07-26T15:34:57.656Z,91.50
2022-07-26T15:37:25.242Z,91.80
2022-07-26T15:39:52.757Z,92.20
2022-07-26T15:42:21.509Z,92.30
2022-07-26T15:44:51.956Z,92.20
2022-07-26T15:47:51.385Z,92.00
2022-07-26T15:50:09.062Z,91.70
2022-07-26T15:52:38.562Z,91.40
2022-07-26T15:55:07.943Z,91.10
2022-07-26T15:57:36.014Z,90.80
2022-07-26T16:00:11.485Z,90.90
2022-07-26T16:02:40.381Z,91.00
2022-07-26T16:05:08.835Z,90.90
2022-07-26T16:07:36.259Z,90.80
2022-07-26T16:10:04.981Z,90.80
2022-07-26T16:12:33.191Z,90.80
2022-07-26T16:15:00.919Z,90.80
2022-07-26T16:17:28.572Z,90.60
2022-07-26T16:19:55.884Z,90.70
2022-07-26T16:22:23.420Z,91.00
2022-07-26T16:24:50.748Z,90.90
2022-07-26T16:27:18.476Z,91.00
2022-07-26T16:29:50.326Z,90.90
2022-07-26T16:32:21.424Z,91.00
2022-07-26T16:34:48.908Z,91.10
2022-07-26T16:37:16.526Z,91.00
2022-07-26T16:39:43.811Z,91.10
2022-07-26T16:42:11.473Z,91.20
2022-07-26T16:44:39.323Z,91.50
2022-07-26T16:47:06.733Z,91.50
2022-07-26T16:49:34.178Z,92.00
2022-07-26T16:52:01.788Z,92.00
2022-07-26T16:54:29.199Z,91.70
2022-07-26T16:56:56.490Z,91.50
2022-07-26T16:59:23.906Z,91.50
2022-07-26T17:01:51.646Z,91.10
2022-07-26T17:04:19.047Z,90.70
2022-07-26T17:07:07.789Z,90.00
2022-07-26T17:09:33.796Z,88.90
2022-07-26T17:12:06.072Z,88.30
2022-07-26T17:14:33.990Z,88.50
2022-07-26T17:17:01.290Z,88.10
2022-07-26T17:19:28.591Z,88.60
2022-07-26T17:21:56.141Z,88.60
2022-07-26T17:24:23.528Z,88.10
2022-07-26T17:26:50.964Z,87.70
2022-07-26T17:29:18.496Z,87.60
2022-07-26T17:31:46.132Z,87.20
2022-07-26T17:34:13.428Z,87.40
2022-07-26T17:36:43.023Z,87.30
2022-07-26T17:39:15.066Z,87.50
2022-07-26T17:41:48.970Z,87.70
2022-07-26T17:44:16.545Z,88.00
2022-07-26T17:46:44.110Z,88.20
2022-07-26T17:49:12.284Z,88.10
2022-07-26T17:51:41.460Z,88.20
2022-07-26T17:54:09.558Z,88.00
2022-07-26T17:56:36.814Z,87.50
2022-07-26T17:59:04.164Z,87.30
2022-07-26T18:01:31.599Z,87.10
2022-07-26T18:03:59.009Z,87.70
2022-07-26T18:06:26.799Z,88.30
2022-07-26T18:08:54.061Z,88.80
2022-07-26T18:11:21.427Z,89.30
2022-07-26T18:13:48.771Z,89.40
2022-07-26T18:16:16.264Z,89.60
2022-07-26T18:18:43.717Z,89.60
2022-07-26T18:21:11.033Z,89.20
2022-07-26T18:23:45.922Z,89.10
2022-07-26T18:26:24.202Z,89.90
2022-07-26T18:28:51.713Z,90.20
2022-07-26T18:31:19.515Z,90.90
2022-07-26T18:33:47.032Z,90.70
2022-07-26T18:36:14.361Z,90.90
2022-07-26T18:38:41.816Z,91.00
2022-07-26T18:41:10.328Z,91.30
2022-07-26T18:43:38.095Z,91.50
2022-07-26T18:46:06.312Z,91.60
2022-07-26T18:48:33.959Z,92.10
2022-07-26T18:51:01.455Z,92.00
2022-07-26T18:53:29.015Z,92.30
2022-07-26T18:55:57.505Z,92.50
2022-07-26T18:58:25.458Z,92.70
2022-07-26T19:00:55.026Z,92.80
2022-07-26T19:03:22.570Z,92.90
2022-07-26T19:05:50.027Z,93.10
2022-07-26T19:08:17.407Z,93.40
2022-07-26T19:10:44.974Z,93.50
2022-07-26T19:13:12.249Z,93.60
2022-07-26T19:15:39.588Z,93.70
2022-07-26T19:18:12.087Z,93.80
2022-07-26T19:20:39.423Z,93.90
2022-07-26T19:23:06.929Z,94.10
2022-07-26T19:25:34.246Z,94.20
2022-07-26T19:28:01.956Z,94.70
2022-07-26T19:30:29.472Z,94.40
2022-07-26T19:32:56.753Z,94.40
2022-07-26T19:35:24.185Z,94.40
2022-07-26T19:37:51.635Z,94.50
2022-07-26T19:40:19.099Z,94.60
2022-07-26T19:42:47.004Z,94.70
2022-07-26T19:45:14.519Z,94.90
2022-07-26T19:47:41.982Z,94.90
2022-07-26T19:50:10.076Z,94.90
2022-07-26T19:52:37.551Z,95.00
2022-07-26T19:55:05.483Z,95.20
2022-07-26T19:57:32.938Z,95.30
2022-07-26T20:00:02.526Z,95.50
2022-07-26T20:02:41.017Z,95.70
2022-07-26T20:05:10.711Z,95.80
2022-07-26T20:07:38.389Z,95.80
2022-07-26T20:10:06.518Z,96.00
2022-07-26T20:12:34.378Z,96.10
2022-07-26T20:15:01.687Z,96.10
2022-07-26T20:17:33.276Z,96.10
2022-07-26T20:20:00.992Z,96.20
2022-07-26T20:22:28.620Z,96.10
2022-07-26T20:24:56.392Z,96.20
2022-07-26T20:27:24.503Z,96.10
2022-07-26T20:29:52.822Z,96.10
2022-07-26T20:32:21.557Z,96.40
2022-07-26T20:34:48.875Z,96.10
2022-07-26T20:37:16.207Z,96.10
2022-07-26T20:39:43.614Z,96.10
2022-07-26T20:42:13.038Z,96.10
2022-07-26T20:44:48.765Z,96.30
2022-07-26T20:47:16.507Z,96.30
2022-07-26T20:49:44.026Z,96.50
2022-07-26T20:52:11.355Z,96.60
2022-07-26T20:54:38.667Z,96.80
2022-07-26T20:57:06.314Z,96.80
2022-07-26T20:59:34.984Z,96.80
2022-07-26T21:02:02.385Z,96.80
2022-07-26T21:04:30.140Z,96.90
2022-07-26T21:06:57.622Z,97.00
2022-07-26T21:09:30.381Z,97.00
2022-07-26T21:11:57.888Z,97.10
2022-07-26T21:14:25.373Z,97.10
2022-07-26T21:16:53.323Z,97.10
2022-07-26T21:19:20.906Z,97.10
2022-07-26T21:21:48.162Z,97.00
2022-07-26T21:24:15.864Z,96.90
2022-07-26T21:26:43.257Z,96.90
2022-07-26T21:29:10.837Z,97.00
2022-07-26T21:31:38.504Z,97.10
2022-07-26T21:34:05.952Z,97.20
2022-07-26T21:36:33.345Z,97.30
2022-07-26T21:39:00.769Z,97.40
2022-07-26T21:41:28.032Z,97.60
2022-07-26T21:43:55.501Z,97.60
2022-07-26T21:46:23.245Z,97.70
2022-07-26T21:48:51.092Z,97.60
2022-07-26T21:51:19.037Z,97.40
2022-07-26T21:53:46.504Z,97.50
2022-07-26T21:56:13.834Z,97.40
2022-07-26T21:58:41.095Z,97.50
2022-07-26T22:01:11.072Z,97.90
2022-07-26T22:03:40.081Z,98.00
2022-07-26T22:06:08.342Z,98.20
2022-07-26T22:08:36.310Z,98.40
2022-07-26T22:11:04.146Z,98.70
2022-07-26T22:13:31.558Z,98.80
2022-07-26T22:15:59.036Z,98.80
2022-07-26T22:18:26.733Z,98.80
2022-07-26T22:20:55.234Z,98.80
2022-07-26T22:23:31.826Z,98.70
2022-07-26T22:26:04.379Z,98.50
2022-07-26T22:28:33.454Z,98.50
2022-07-26T22:31:01.606Z,98.50
2022-07-26T22:33:29.039Z,98.50
2022-07-26T22:35:56.451Z,98.60
2022-07-26T22:38:23.843Z,98.60
2022-07-26T22:40:51.344Z,98.80
2022-07-26T22:43:18.786Z,98.80
2022-07-26T22:45:46.178Z,98.80
2022-07-26T22:48:13.725Z,98.90
2022-07-26T22:50:41.067Z,98.90
2022-07-26T22:53:08.738Z,98.90
2022-07-26T22:55:36.341Z,98.80
2022-07-26T22:58:03.891Z,98.80
2022-07-26T23:00:31.600Z,98.80
2022-07-26T23:02:59.026Z,98.80
2022-07-26T23:05:45.296Z,98.80
2022-07-26T23:08:36.780Z,98.80
2022-07-26T23:11:02.541Z,98.70
2022-07-26T23:13:29.833Z,98.80
2022-07-26T23:16:00.922Z,99.00
2022-07-26T23:18:30.115Z,99.40
2022-07-26T23:20:58.184Z,99.20
2022-07-26T23:23:29.360Z,99.10
2022-07-26T23:25:59.074Z,99.20
2022-07-26T23:28:36.757Z,99.10
2022-07-26T23:31:07.957Z,99.10
2022-07-26T23:33:53.454Z,99.20
2022-07-26T23:36:28.753Z,99.20
2022-07-26T23:39:00.078Z,99.30
2022-07-26T23:41:28.600Z,99.50
2022-07-26T23:43:56.587Z,99.30
2022-07-26T23:46:24.609Z,99.30
2022-07-26T23:48:52.566Z,99.40
2022-07-26T23:51:20.405Z,99.40
2022-07-26T23:53:47.911Z,99.40
2022-07-26T23:56:15.667Z,99.50
2022-07-26T23:58:43.809Z,99.50
